女満別空港の過去48時間の天気

女満別空港 (Memanbetsu)

現在時刻: 1/25 15:50 JST (1/25 06:50 UTC) 以下の時間は現地時間です。

過去48時間のMETAR気象情報
時間 風向 風速(m/s) 視程 気温(℃) 湿度(%) 気圧(hPa) 天気現象
25 15:00 5 3000m -8 79 1022 弱いしゅう雪
25 14:34 北北西 5 2400m -8 79 1022 弱いしゅう雪
25 14:06 北北西 6 2300m -8 79 1021 弱いしゅう雪
25 14:00 6 3200m -8 73 1021 弱いしゅう雪
25 13:43 5 4900m -8 73 1021 弱いしゅう雪
25 13:00 北西 5 10km以上 -6 45 1021
25 12:00 西北西 5 10km以上 -7 45 1022 弱いしゅう雪
25 11:00 西北西 5 10km以上 -7 41 1023
25 10:00 西北西 6 10km以上 -7 38 1024
25 09:00 南南西 2 10km以上 -9 57 1023
25 08:00 北西 2 10km以上 -8 53 1023
25 07:45 西北西 2 10km以上 -8 53 1023
24 20:00 西北西 6 10km以上 -7 49 1017
24 19:00 西北西 3 10km以上 -7 53 1017
24 18:00 北西 6 10km以上 -6 53 1016
24 17:00 北西 7 10km以上 -6 63 1014 弱いしゅう雪
24 16:00 西北西 5 10km以上 -4 46 1013 周辺でしゅう雨
24 15:00 3 10km以上 -2 36 1012
24 14:00 西北西 3 10km以上 -1 43 1011
24 13:00 4 10km以上 -2 74 1012
24 12:00 不定 1 10km以上 -1 64 1012
24 11:00 不定 2 10km以上 -1 64 1012
24 10:00 南西 3 10km以上 -3 68 1013 弱いしゅう雪
24 09:00 南西 3 10km以上 -6 73 1013
24 08:00 南東 2 10km以上 -13 85 1013
24 07:45 南東 2 10km以上 -14 78 1013
23 20:00 南西 1 10km以上 -6 79 1020
23 19:00 西 1 10km以上 -5 79 1020
23 18:00 不定 1 10km以上 -5 79 1020
23 17:00 東北東 2 10km以上 -4 74 1020
23 16:00 2 10km以上 -3 68 1020
RJCM 250600Z 35010KT 3000 -SHSN FEW010 SCT015 BKN020 M08/M11 Q1022
RJCM 250534Z 34009KT 2400 -SHSN FEW006 SCT008 BKN010 M08/M11 Q1022 RMK 1ST006 3ST008 5ST010 A3018
RJCM 250506Z 34011KT 2300 R36/P1800N -SHSN FEW006 SCT010 BKN015 M08/M11 Q1021 RMK 1ST006 3ST010 5ST015 A3017
RJCM 250500Z 35012KT 3200 -SHSN FEW009 SCT010 BKN015 M08/M12 Q1021
RJCM 250443Z 35010KT 4900 -SHSN FEW010 SCT020 BKN040 M08/M12 Q1021 RMK 1ST010 3CU020 5CU040 A3017 9999S
RJCM 250400Z 32009KT 280V020 9999 FEW015 SCT040 BKN050 M06/M16 Q1021
RJCM 250300Z 30010KT 250V340 9999 -SHSN FEW015 SCT030 BKN040 M07/M17 Q1022
RJCM 250200Z 29010G20KT 240V330 9999 FEW015 SCT040 BKN050 M07/M18 Q1023
RJCM 250100Z 29011G23KT 230V340 9999 FEW015 SCT050 M07/M19 Q1024
RJCM 250000Z 21004KT 130V310 9999 FEW020 M09/M16 Q1023
RJCM 242300Z 31003KT 280V340 9999 FEW010 SCT030 BKN050 M08/M16 Q1023
RJCM 242245Z 30004KT 270V350 9999 FEW015 SCT030 BKN050 M08/M16 Q1023 RMK 1ST015 3CU030 5CU050 A3022
RJCM 241100Z 30011KT 260V340 9999 FEW015 SCT040 BKN050 M07/M16 Q1017
RJCM 241000Z 30006KT 260V350 9999 FEW015 SCT030 BKN050 M07/M15 Q1017
RJCM 240900Z 32011KT 9999 FEW015 SCT035 BKN070 M06/M14 Q1016
RJCM 240800Z 32013KT 9999 -SHSN FEW015 SCT030 BKN040 M06/M12 Q1014
RJCM 240700Z 30009KT 250V340 9999 VCSH FEW015 SCT040 BKN060 M04/M14 Q1013
RJCM 240600Z VRB06KT 9999 FEW015 SCT050 M02/M15 Q1012
RJCM 240500Z 30005KT 230V350 9999 FEW015 SCT060 M01/M12 Q1011
RJCM 240400Z 36008KT 320V030 9999 FEW015 BKN030 M02/M06 Q1012
RJCM 240300Z VRB01KT 9999 FEW015 BKN040 M01/M07 Q1012
RJCM 240200Z VRB03KT 9999 FEW030 SCT040 BKN070 M01/M07 Q1012
RJCM 240100Z 23005KT 200V270 9999 -SHSN FEW030 SCT050 BKN070 M03/M08 Q1013
RJCM 240000Z 23005KT 9999 FEW020 BKN060 M06/M10 Q1013
RJCM 232300Z 14003KT 120V180 9999 FEW020 M13/M15 Q1013
RJCM 232245Z 14003KT 100V210 9999 FEW020 M14/M17 Q1013 RMK 1CU020 A2994
RJCM 231100Z 23001KT 9999 FEW010 BKN040 M06/M09 Q1020
RJCM 231000Z 26001KT 9999 FEW010 SCT040 BKN050 M05/M08 Q1020
RJCM 230900Z VRB01KT 9999 FEW010 SCT025 BKN050 M05/M08 Q1020
RJCM 230800Z 06003KT 9999 FEW010 SCT030 M04/M08 Q1020
RJCM 230700Z 36004KT 9999 FEW010 SCT020 BKN035 M03/M08 Q1020